Time,TemperatureF,DewpointF,PressureIn,WindDirection,WindDirectionDegrees,WindSpeedMPH,WindSpeedGustMPH,Humidity,HourlyPrecipIn,Conditions,Clouds,dailyrainin,SoftwareType,DateUTC
2013-10-08 00:00:00,57.6,38.5,0.00,West,280,0.0,6.0,49,0.00,,,0.00,Weather View 32 v70,2013-10-08 04:00:00,
2013-10-08 00:15:00,57.2,38.7,0.00,WSW,253,4.0,6.0,50,0.00,,,0.00,Weather View 32 v70,2013-10-08 04:15:00,
2013-10-08 00:30:00,56.8,38.4,0.00,WSW,257,0.0,6.0,50,0.00,,,0.00,Weather View 32 v70,2013-10-08 04:30:00,
2013-10-08 00:38:00,56.8,38.4,0.00,WSW,257,0.0,6.0,50,0.00,,,0.00,Weather View 32 v70,2013-10-08 04:38:00,
2013-10-08 00:45:00,56.7,37.2,0.00,West,271,4.0,6.0,48,0.00,,,0.00,Weather View 32 v70,2013-10-08 04:45:00,
2013-10-08 01:00:00,56.3,37.3,0.00,WSW,240,0.0,6.0,49,0.00,,,0.00,Weather View 32 v70,2013-10-08 05:00:00,
2013-10-08 01:15:00,56.3,37.3,0.00,West,279,0.0,6.0,49,0.00,,,0.00,Weather View 32 v70,2013-10-08 05:15:00,
2013-10-08 01:30:00,55.9,37.5,0.00,West,264,0.0,5.0,50,0.00,,,0.00,Weather View 32 v70,2013-10-08 05:30:00,
2013-10-08 01:39:00,55.9,37.5,0.00,West,264,0.0,5.0,50,0.00,,,0.00,Weather View 32 v70,2013-10-08 05:39:00,
2013-10-08 01:45:00,55.6,38.2,0.00,WSW,246,0.0,5.0,52,0.00,,,0.00,Weather View 32 v70,2013-10-08 05:45:00,
2013-10-08 02:00:00,55.0,39.1,0.00,WSW,258,0.0,5.0,55,0.00,,,0.00,Weather View 32 v70,2013-10-08 06:00:00,
2013-10-08 02:15:00,54.5,40.4,0.00,WSW,258,0.0,4.0,59,0.00,,,0.00,Weather View 32 v70,2013-10-08 06:15:00,
2013-10-08 02:30:00,53.6,42.1,0.00,WSW,258,0.0,4.0,65,0.00,,,0.00,Weather View 32 v70,2013-10-08 06:30:00,
2013-10-08 02:39:00,53.6,42.1,0.00,WSW,258,0.0,4.0,65,0.00,,,0.00,Weather View 32 v70,2013-10-08 06:39:00,
2013-10-08 02:45:00,53.1,42.0,0.00,WSW,258,0.0,4.0,66,0.00,,,0.00,Weather View 32 v70,2013-10-08 06:45:00,
2013-10-08 03:00:00,52.9,41.8,0.00,WSW,258,0.0,0.0,66,0.00,,,0.00,Weather View 32 v70,2013-10-08 07:00:00,
2013-10-08 03:15:00,52.7,42.8,0.00,West,260,0.0,0.0,69,0.00,,,0.00,Weather View 32 v70,2013-10-08 07:15:00,
2013-10-08 03:30:00,52.9,43.0,0.00,West,276,3.0,4.0,69,0.00,,,0.00,Weather View 32 v70,2013-10-08 07:30:00,
2013-10-08 03:45:00,52.7,42.0,0.00,West,264,0.0,4.0,67,0.00,,,0.00,Weather View 32 v70,2013-10-08 07:45:00,
2013-10-08 04:00:00,52.7,41.6,0.00,West,263,0.0,4.0,66,0.00,,,0.00,Weather View 32 v70,2013-10-08 08:00:00,
2013-10-08 04:15:00,52.7,41.6,0.00,WSW,241,0.0,4.0,66,0.00,,,0.00,Weather View 32 v70,2013-10-08 08:15:00,
2013-10-08 04:30:00,52.7,41.6,0.00,WSW,241,0.0,3.0,66,0.00,,,0.00,Weather View 32 v70,2013-10-08 08:30:00,
2013-10-08 04:45:00,52.5,41.1,0.00,WSW,243,0.0,3.0,65,0.00,,,0.00,Weather View 32 v70,2013-10-08 08:45:00,
2013-10-08 05:00:00,52.5,41.1,0.00,WSW,242,0.0,3.0,65,0.00,,,0.00,Weather View 32 v70,2013-10-08 09:00:00,
2013-10-08 05:15:00,52.3,41.3,0.00,WSW,242,0.0,3.0,66,0.00,,,0.00,Weather View 32 v70,2013-10-08 09:15:00,
2013-10-08 05:30:00,51.6,41.4,0.00,WSW,243,0.0,3.0,68,0.00,,,0.00,Weather View 32 v70,2013-10-08 09:30:00,
2013-10-08 05:45:00,51.3,41.0,0.00,West,259,0.0,3.0,68,0.00,,,0.00,Weather View 32 v70,2013-10-08 09:45:00,
2013-10-08 06:00:00,51.4,41.6,0.00,West,259,0.0,3.0,69,0.00,,,0.00,Weather View 32 v70,2013-10-08 10:00:00,
2013-10-08 06:15:00,51.4,40.8,0.00,WNW,291,0.0,3.0,67,0.00,,,0.00,Weather View 32 v70,2013-10-08 10:15:00,
2013-10-08 06:30:00,51.6,41.0,0.00,NNW,331,0.0,5.0,67,0.00,,,0.00,Weather View 32 v70,2013-10-08 10:30:00,
2013-10-08 06:45:00,51.3,39.1,0.00,NNW,331,0.0,5.0,63,0.00,,,0.00,Weather View 32 v70,2013-10-08 10:45:00,
2013-10-08 07:00:00,50.4,40.6,0.00,NNW,331,0.0,5.0,69,0.00,,,0.00,Weather View 32 v70,2013-10-08 11:00:00,
2013-10-08 07:15:00,50.9,38.3,0.00,NNE,19,3.0,5.0,62,0.00,,,0.00,Weather View 32 v70,2013-10-08 11:15:00,
2013-10-08 07:30:00,52.0,38.9,0.00,NE,45,0.0,5.0,61,0.00,,,0.00,Weather View 32 v70,2013-10-08 11:30:00,
2013-10-08 07:45:00,51.8,39.6,0.00,NE,49,0.0,5.0,63,0.00,,,0.00,Weather View 32 v70,2013-10-08 11:45:00,
2013-10-08 08:00:00,51.4,40.8,0.00,NE,49,0.0,5.0,67,0.00,,,0.00,Weather View 32 v70,2013-10-08 12:00:00,
2013-10-08 08:15:00,51.3,41.4,0.00,NE,48,0.0,4.0,69,0.00,,,0.00,Weather View 32 v70,2013-10-08 12:15:00,
2013-10-08 08:30:00,51.8,41.9,0.00,North,357,0.0,2.0,69,0.00,,,0.00,Weather View 32 v70,2013-10-08 12:30:00,
2013-10-08 08:45:00,52.9,43.0,0.00,North,357,0.0,2.0,69,0.00,,,0.00,Weather View 32 v70,2013-10-08 12:45:00,
2013-10-08 09:00:00,54.0,40.8,0.00,North,357,0.0,2.0,61,0.00,,,0.00,Weather View 32 v70,2013-10-08 13:00:00,
2013-10-08 09:15:00,55.2,40.7,0.00,NW,314,2.0,4.0,58,0.00,,,0.00,Weather View 32 v70,2013-10-08 13:15:00,
2013-10-08 09:30:00,56.3,37.9,0.00,NNW,342,0.0,4.0,50,0.00,,,0.00,Weather View 32 v70,2013-10-08 13:30:00,
2013-10-08 09:45:00,57.7,37.6,0.00,North,1,0.0,4.0,47,0.00,,,0.00,Weather View 32 v70,2013-10-08 13:45:00,
2013-10-08 10:00:00,59.4,37.4,0.00,North,353,3.0,5.0,44,0.00,,,0.00,Weather View 32 v70,2013-10-08 14:00:00,
2013-10-08 10:15:00,60.4,35.3,0.00,WNW,295,3.0,5.0,39,0.00,,,0.00,Weather View 32 v70,2013-10-08 14:15:00,
2013-10-08 10:30:00,60.6,32.8,0.00,NNW,344,4.0,8.0,35,0.00,,,0.00,Weather View 32 v70,2013-10-08 14:30:00,
2013-10-08 10:45:00,61.5,34.3,0.00,NNW,337,0.0,8.0,36,0.00,,,0.00,Weather View 32 v70,2013-10-08 14:45:00,
2013-10-08 11:00:00,63.0,34.1,0.00,WNW,290,4.0,8.0,34,0.00,,,0.00,Weather View 32 v70,2013-10-08 15:00:00,
2013-10-08 11:15:00,65.5,35.5,0.00,NNW,345,3.0,8.0,33,0.00,,,0.00,Weather View 32 v70,2013-10-08 15:15:00,
2013-10-08 11:30:00,65.8,36.6,0.00,NNE,22,3.0,8.0,34,0.00,,,0.00,Weather View 32 v70,2013-10-08 15:30:00,
2013-10-08 11:45:00,66.0,36.0,0.00,NW,316,3.0,8.0,33,0.00,,,0.00,Weather View 32 v70,2013-10-08 15:45:00,
2013-10-08 12:00:00,65.1,34.5,0.00,WNW,301,3.0,6.0,32,0.00,,,0.00,Weather View 32 v70,2013-10-08 16:00:00,
2013-10-08 12:15:00,65.5,34.8,0.00,North,357,0.0,6.0,32,0.00,,,0.00,Weather View 32 v70,2013-10-08 16:15:00,
2013-10-08 12:30:00,65.8,35.1,0.00,NW,314,4.0,6.0,32,0.00,,,0.00,Weather View 32 v70,2013-10-08 16:30:00,
2013-10-08 12:45:00,67.1,34.6,0.00,NNW,344,5.0,6.0,30,0.00,,,0.00,Weather View 32 v70,2013-10-08 16:45:00,
2013-10-08 13:00:00,67.3,33.9,0.00,NNW,327,4.0,6.0,29,0.00,,,0.00,Weather View 32 v70,2013-10-08 17:00:00,
2013-10-08 13:15:00,66.7,32.5,0.00,NW,321,3.0,8.0,28,0.00,,,0.00,Weather View 32 v70,2013-10-08 17:15:00,
2013-10-08 13:30:00,67.6,35.8,0.00,NNE,18,3.0,8.0,31,0.00,,,0.00,Weather View 32 v70,2013-10-08 17:30:00,
2013-10-08 13:45:00,67.5,32.2,0.00,West,259,5.0,8.0,27,0.00,,,0.00,Weather View 32 v70,2013-10-08 17:45:00,
2013-10-08 14:00:00,67.8,31.6,0.00,NNW,331,3.0,8.0,26,0.00,,,0.00,Weather View 32 v70,2013-10-08 18:00:00,
2013-10-08 14:15:00,68.5,32.2,0.00,NNW,343,4.0,8.0,26,0.00,,,0.00,Weather View 32 v70,2013-10-08 18:15:00,
2013-10-08 14:30:00,68.4,32.1,0.00,North,353,3.0,8.0,26,0.00,,,0.00,Weather View 32 v70,2013-10-08 18:30:00,
2013-10-08 14:45:00,68.9,30.5,0.00,North,8,4.0,8.0,24,0.00,,,0.00,Weather View 32 v70,2013-10-08 18:45:00,
2013-10-08 15:00:00,69.4,31.0,0.00,North,357,5.0,8.0,24,0.00,,,0.00,Weather View 32 v70,2013-10-08 19:00:00,
2013-10-08 15:15:00,68.2,30.9,0.00,North,357,3.0,8.0,25,0.00,,,0.00,Weather View 32 v70,2013-10-08 19:15:00,
2013-10-08 15:30:00,67.6,30.5,0.00,North,1,3.0,8.0,25,0.00,,,0.00,Weather View 32 v70,2013-10-08 19:30:00,
2013-10-08 15:45:00,66.9,30.8,0.00,North,2,3.0,8.0,26,0.00,,,0.00,Weather View 32 v70,2013-10-08 19:45:00,
2013-10-08 16:00:00,66.2,32.9,0.00,NNW,332,4.0,6.0,29,0.00,,,0.00,Weather View 32 v70,2013-10-08 20:00:00,
2013-10-08 16:15:00,65.5,33.2,0.00,NNE,18,3.0,5.0,30,0.00,,,0.00,Weather View 32 v70,2013-10-08 20:15:00,
2013-10-08 16:30:00,65.5,35.5,0.00,North,357,0.0,5.0,33,0.00,,,0.00,Weather View 32 v70,2013-10-08 20:30:00,
2013-10-08 16:45:00,65.3,35.4,0.00,North,349,2.0,5.0,33,0.00,,,0.00,Weather View 32 v70,2013-10-08 20:45:00,
2013-10-08 17:00:00,64.9,35.1,0.00,North,5,2.0,5.0,33,0.00,,,0.00,Weather View 32 v70,2013-10-08 21:00:00,
2013-10-08 17:15:00,64.6,35.5,0.00,NNE,20,2.0,4.0,34,0.00,,,0.00,Weather View 32 v70,2013-10-08 21:15:00,
2013-10-08 17:30:00,64.0,36.5,0.00,North,5,3.0,4.0,36,0.00,,,0.00,Weather View 32 v70,2013-10-08 21:30:00,
2013-10-08 17:45:00,63.5,37.4,0.00,NNE,18,2.0,4.0,38,0.00,,,0.00,Weather View 32 v70,2013-10-08 21:45:00,
2013-10-08 18:00:00,62.6,37.2,0.00,NNE,17,0.0,4.0,39,0.00,,,0.00,Weather View 32 v70,2013-10-08 22:00:00,
2013-10-08 18:15:00,61.7,37.1,0.00,NNE,17,0.0,4.0,40,0.00,,,0.00,Weather View 32 v70,2013-10-08 22:15:00,
2013-10-08 18:30:00,60.8,36.9,0.00,NNE,17,0.0,3.0,41,0.00,,,0.00,Weather View 32 v70,2013-10-08 22:30:00,
2013-10-08 18:45:00,59.4,37.4,0.00,NNE,18,0.0,2.0,44,0.00,,,0.00,Weather View 32 v70,2013-10-08 22:45:00,
2013-10-08 19:00:00,58.6,37.3,0.00,NNE,17,0.0,0.0,45,0.00,,,0.00,Weather View 32 v70,2013-10-08 23:00:00,
2013-10-08 19:15:00,58.5,37.7,0.00,NNE,17,0.0,0.0,46,0.00,,,0.00,Weather View 32 v70,2013-10-08 23:15:00,
2013-10-08 19:30:00,58.3,38.1,0.00,NNE,18,0.0,0.0,47,0.00,,,0.00,Weather View 32 v70,2013-10-08 23:30:00,
2013-10-08 19:45:00,57.7,38.7,0.00,NNE,17,0.0,0.0,49,0.00,,,0.00,Weather View 32 v70,2013-10-08 23:45:00,
2013-10-08 20:00:00,57.2,39.2,0.00,NNE,17,0.0,0.0,51,0.00,,,0.00,Weather View 32 v70,2013-10-09 00:00:00,
2013-10-08 20:15:00,56.7,38.7,0.00,NNE,18,0.0,0.0,51,0.00,,,0.00,Weather View 32 v70,2013-10-09 00:15:00,
2013-10-08 20:30:00,56.7,38.7,0.00,North,9,0.0,0.0,51,0.00,,,0.00,Weather View 32 v70,2013-10-09 00:30:00,
2013-10-08 20:45:00,56.3,38.4,0.00,North,9,0.0,0.0,51,0.00,,,0.00,Weather View 32 v70,2013-10-09 00:45:00,
2013-10-08 20:50:00,56.3,38.4,0.00,North,9,0.0,0.0,51,0.00,,,0.00,Weather View 32 v70,2013-10-09 00:50:00,
2013-10-08 21:00:00,55.9,39.5,0.00,North,9,0.0,0.0,54,0.00,,,0.00,Weather View 32 v70,2013-10-09 01:00:00,
2013-10-08 21:15:00,55.6,39.2,0.00,North,0,0.0,0.0,54,0.00,,,0.00,Weather View 32 v70,2013-10-09 01:15:00,
2013-10-08 21:30:00,54.9,39.4,0.00,North,0,0.0,0.0,56,0.00,,,0.00,Weather View 32 v70,2013-10-09 01:30:00,
2013-10-08 21:45:00,54.3,39.4,0.00,North,0,2.0,3.0,57,0.00,,,0.00,Weather View 32 v70,2013-10-09 01:45:00,
2013-10-08 21:50:00,54.3,39.4,0.00,North,0,2.0,3.0,57,0.00,,,0.00,Weather View 32 v70,2013-10-09 01:50:00,
2013-10-08 22:00:00,54.3,39.8,0.00,North,353,4.0,4.0,58,0.00,,,0.00,Weather View 32 v70,2013-10-09 02:00:00,
2013-10-08 22:15:00,54.3,39.8,0.00,North,0,2.0,4.0,58,0.00,,,0.00,Weather View 32 v70,2013-10-09 02:15:00,
2013-10-08 22:30:00,54.0,38.1,0.00,North,9,2.0,4.0,55,0.00,,,0.00,Weather View 32 v70,2013-10-09 02:30:00,
2013-10-08 22:45:00,54.1,37.3,0.00,NNW,348,0.0,4.0,53,0.00,,,0.00,Weather View 32 v70,2013-10-09 02:45:00,
2013-10-08 22:51:00,54.1,37.3,0.00,NNW,348,0.0,4.0,53,0.00,,,0.00,Weather View 32 v70,2013-10-09 02:51:00,
2013-10-08 23:00:00,54.1,36.9,0.00,NNW,348,0.0,4.0,52,0.00,,,0.00,Weather View 32 v70,2013-10-09 03:00:00,
2013-10-08 23:15:00,53.8,36.0,0.00,NNW,348,0.0,3.0,51,0.00,,,0.00,Weather View 32 v70,2013-10-09 03:15:00,
2013-10-08 23:30:00,53.6,34.9,0.00,North,5,3.0,4.0,49,0.00,,,0.00,Weather View 32 v70,2013-10-09 03:30:00,
2013-10-08 23:45:00,54.1,35.9,0.00,North,357,0.0,4.0,50,0.00,,,0.00,Weather View 32 v70,2013-10-09 03:45:00,
2013-10-08 23:51:00,54.1,35.9,0.00,North,357,0.0,4.0,50,0.00,,,0.00,Weather View 32 v70,2013-10-09 03:51:00,